createdAt,value
2024-03-16T00:01:27.280Z,4.87
2024-03-16T00:03:01.000Z,3.73
2024-03-16T00:04:33.603Z,5.17
2024-03-16T00:06:06.690Z,3.87
2024-03-16T00:07:38.626Z,3.73
2024-03-16T00:09:12.086Z,4.40
2024-03-16T00:10:44.499Z,4.40
2024-03-16T00:12:18.084Z,5.97
2024-03-16T00:13:49.981Z,5.53
2024-03-16T00:15:22.964Z,3.50
2024-03-16T00:16:55.140Z,4.20
2024-03-16T00:18:28.122Z,5.23
2024-03-16T00:20:00.139Z,3.63
2024-03-16T00:21:33.160Z,4.20
2024-03-16T00:23:05.109Z,7.13
2024-03-16T00:24:38.015Z,6.00
2024-03-16T00:26:09.950Z,5.40
2024-03-16T00:27:42.887Z,5.63
2024-03-16T00:29:14.978Z,4.27
2024-03-16T00:30:48.140Z,6.03
2024-03-16T00:32:21.526Z,3.50
2024-03-16T00:33:55.011Z,5.30
2024-03-16T00:35:27.516Z,4.57
2024-03-16T00:37:05.366Z,4.30
2024-03-16T00:38:37.460Z,3.83
2024-03-16T00:40:10.964Z,4.67
2024-03-16T00:41:43.263Z,3.83
2024-03-16T00:43:19.436Z,3.50
2024-03-16T00:44:52.908Z,5.87
2024-03-16T00:46:24.921Z,4.37
2024-03-16T00:47:58.039Z,5.40
2024-03-16T00:49:30.018Z,6.03
2024-03-16T00:51:03.017Z,3.57
2024-03-16T00:52:34.960Z,4.90
2024-03-16T00:54:07.843Z,4.70
2024-03-16T00:55:40.013Z,6.67
2024-03-16T00:57:13.034Z,5.27
2024-03-16T00:58:44.942Z,5.80
2024-03-16T01:00:19.337Z,5.53
2024-03-16T01:01:53.255Z,5.77
2024-03-16T01:03:26.177Z,6.63
2024-03-16T01:04:58.111Z,6.23
2024-03-16T01:06:31.016Z,5.30
2024-03-16T01:08:04.174Z,5.93
2024-03-16T01:09:36.088Z,4.60
2024-03-16T01:11:10.613Z,6.23
2024-03-16T01:12:42.851Z,4.00
2024-03-16T01:14:15.780Z,4.40
2024-03-16T01:15:47.748Z,4.70
2024-03-16T01:17:22.020Z,7.07
2024-03-16T01:18:54.623Z,5.23
2024-03-16T01:20:29.272Z,5.20
2024-03-16T01:22:01.518Z,5.73
2024-03-16T01:23:34.796Z,4.77
2024-03-16T01:25:07.472Z,6.63
2024-03-16T01:26:40.393Z,6.80
2024-03-16T01:28:13.598Z,5.60
2024-03-16T01:29:47.583Z,4.90
2024-03-16T01:31:19.572Z,6.33
2024-03-16T01:32:52.480Z,5.63
2024-03-16T01:34:24.416Z,7.10
2024-03-16T01:35:57.311Z,6.37
2024-03-16T01:37:31.285Z,7.07
2024-03-16T01:39:04.459Z,6.90
2024-03-16T01:40:36.692Z,4.97
2024-03-16T01:42:09.640Z,7.03
2024-03-16T01:43:41.571Z,6.80
2024-03-16T01:45:14.529Z,5.23
2024-03-16T01:46:47.550Z,5.50
2024-03-16T01:48:20.419Z,4.60
2024-03-16T01:49:52.372Z,7.07
2024-03-16T01:51:25.392Z,6.60
2024-03-16T01:52:57.277Z,4.80
2024-03-16T01:54:31.884Z,9.63
2024-03-16T01:56:04.131Z,5.17
2024-03-16T01:57:38.574Z,6.03
2024-03-16T01:59:10.551Z,3.93
2024-03-16T02:00:48.687Z,7.53
2024-03-16T02:02:31.129Z,5.83
2024-03-16T02:04:04.697Z,5.03
2024-03-16T02:05:37.378Z,6.43
2024-03-16T02:07:11.365Z,5.90
2024-03-16T02:08:43.671Z,5.77
2024-03-16T02:10:16.764Z,6.37
2024-03-16T02:11:51.137Z,4.03
2024-03-16T02:13:24.038Z,5.80
2024-03-16T02:14:57.286Z,7.73
2024-03-16T02:16:30.164Z,4.73
2024-03-16T02:18:02.161Z,5.23
2024-03-16T02:19:35.090Z,5.97
2024-03-16T02:21:10.618Z,8.43
2024-03-16T02:22:42.668Z,5.97
2024-03-16T02:24:15.537Z,6.83
2024-03-16T02:25:48.160Z,5.83
2024-03-16T02:27:21.782Z,6.17
2024-03-16T02:28:53.937Z,5.97
2024-03-16T02:30:26.906Z,6.53
2024-03-16T02:31:58.837Z,5.53
2024-03-16T02:33:32.555Z,6.40
2024-03-16T02:35:04.931Z,4.30
2024-03-16T02:36:37.845Z,4.57
2024-03-16T02:38:11.188Z,4.43
2024-03-16T02:39:43.495Z,6.00
2024-03-16T02:41:16.366Z,5.63
2024-03-16T02:42:48.491Z,5.70
2024-03-16T02:44:21.380Z,4.13
2024-03-16T02:45:53.417Z,4.97
2024-03-16T02:47:26.380Z,5.10
2024-03-16T02:48:58.352Z,4.30
2024-03-16T02:50:31.237Z,4.37
2024-03-16T02:52:04.781Z,8.43
2024-03-16T02:53:37.736Z,5.20
2024-03-16T02:55:10.615Z,4.77
2024-03-16T02:56:43.611Z,3.90
2024-03-16T02:58:15.554Z,6.23
2024-03-16T02:59:48.447Z,4.30
2024-03-16T03:01:21.269Z,4.20
2024-03-16T03:02:54.357Z,5.77
2024-03-16T03:04:26.282Z,4.37
2024-03-16T03:05:59.167Z,4.20
2024-03-16T03:07:31.125Z,5.07
2024-03-16T03:09:08.092Z,4.20
2024-03-16T03:10:42.368Z,3.83
2024-03-16T03:12:15.595Z,6.03
2024-03-16T03:13:48.726Z,5.77
2024-03-16T03:15:22.921Z,5.10
2024-03-16T03:16:54.857Z,6.40
2024-03-16T03:18:28.253Z,4.47
2024-03-16T03:20:00.226Z,6.10
2024-03-16T03:21:33.160Z,4.03
2024-03-16T03:23:06.580Z,3.00
2024-03-16T03:24:39.700Z,5.27
2024-03-16T03:26:12.262Z,4.60
2024-03-16T03:27:45.164Z,4.00
2024-03-16T03:29:17.122Z,5.70
2024-03-16T03:30:50.531Z,3.50
2024-03-16T03:32:22.481Z,4.07
2024-03-16T03:33:55.448Z,3.57
2024-03-16T03:35:27.412Z,4.23
2024-03-16T03:37:00.441Z,3.30
2024-03-16T03:38:32.435Z,5.10
2024-03-16T03:40:06.080Z,4.80
2024-03-16T03:41:38.381Z,3.07
2024-03-16T03:43:18.486Z,4.97
2024-03-16T03:45:01.230Z,6.00
2024-03-16T03:46:50.935Z,3.80
2024-03-16T03:48:42.120Z,3.43
2024-03-16T03:50:15.088Z,4.47
2024-03-16T03:51:47.144Z,3.50
2024-03-16T03:53:20.150Z,3.03
2024-03-16T03:54:52.096Z,4.50
2024-03-16T03:56:25.032Z,3.30
2024-03-16T03:57:56.974Z,3.33
2024-03-16T03:59:29.877Z,3.97
2024-03-16T04:01:02.042Z,3.20
2024-03-16T04:02:35.029Z,4.30
2024-03-16T04:04:07.069Z,4.10
2024-03-16T04:05:39.988Z,3.23
2024-03-16T04:07:11.948Z,2.77
2024-03-16T04:08:44.836Z,3.50
2024-03-16T04:10:16.777Z,2.90
2024-03-16T04:11:49.759Z,3.40
2024-03-16T04:13:21.734Z,4.20
2024-03-16T04:14:54.872Z,3.03
2024-03-16T04:16:26.788Z,4.03
2024-03-16T04:17:59.836Z,3.43
2024-03-16T04:19:31.872Z,4.50
2024-03-16T04:21:08.027Z,4.87
2024-03-16T04:22:39.958Z,3.60
2024-03-16T04:24:12.914Z,3.80
2024-03-16T04:25:44.819Z,6.27
2024-03-16T04:27:17.703Z,3.33
2024-03-16T04:28:49.791Z,4.97
2024-03-16T04:30:22.705Z,4.03
2024-03-16T04:31:54.636Z,2.90
2024-03-16T04:33:28.402Z,4.20
2024-03-16T04:35:00.467Z,5.57
2024-03-16T04:36:33.400Z,3.43
2024-03-16T04:38:06.195Z,3.90
2024-03-16T04:39:44.602Z,4.17
2024-03-16T04:41:16.803Z,5.33
2024-03-16T04:42:49.724Z,6.23
2024-03-16T04:44:21.640Z,6.23
2024-03-16T04:45:54.637Z,4.47
2024-03-16T04:47:26.680Z,3.40
2024-03-16T04:48:59.615Z,3.57
2024-03-16T04:50:31.561Z,3.67
2024-03-16T04:52:04.676Z,3.90
2024-03-16T04:53:36.601Z,3.43
2024-03-16T04:55:09.673Z,5.33
2024-03-16T04:56:41.712Z,5.20
2024-03-16T04:58:14.629Z,3.80
2024-03-16T04:59:46.676Z,3.70
2024-03-16T05:01:19.619Z,4.23
2024-03-16T05:02:51.557Z,4.57
2024-03-16T05:04:24.470Z,3.37
2024-03-16T05:05:57.458Z,3.63
2024-03-16T05:07:32.066Z,4.47
2024-03-16T05:09:06.518Z,3.90
2024-03-16T05:10:39.396Z,5.00
2024-03-16T05:12:11.306Z,5.57
2024-03-16T05:13:44.460Z,4.53
2024-03-16T05:15:16.453Z,3.80
2024-03-16T05:16:49.402Z,5.23
2024-03-16T05:18:22.333Z,3.83
2024-03-16T05:19:54.288Z,4.90
2024-03-16T05:21:27.401Z,6.47
2024-03-16T05:22:59.337Z,4.60
2024-03-16T05:24:32.253Z,4.17
2024-03-16T05:26:04.394Z,4.13
2024-03-16T05:27:37.414Z,3.97
2024-03-16T05:29:10.518Z,6.57
2024-03-16T05:30:43.483Z,5.10
2024-03-16T05:32:15.615Z,7.40
2024-03-16T05:33:50.115Z,6.27
2024-03-16T05:35:27.338Z,5.00
2024-03-16T05:37:00.248Z,5.97
2024-03-16T05:38:33.196Z,5.30
2024-03-16T05:40:06.312Z,6.70
2024-03-16T05:41:38.342Z,4.50
2024-03-16T05:43:11.376Z,6.50
2024-03-16T05:44:43.596Z,4.73
2024-03-16T05:46:16.891Z,5.13
2024-03-16T05:47:48.899Z,5.00
2024-03-16T05:49:23.834Z,5.67
2024-03-16T05:50:58.054Z,6.37
2024-03-16T05:52:29.983Z,6.03
2024-03-16T05:54:05.218Z,6.13
2024-03-16T05:55:37.172Z,5.80
2024-03-16T05:57:10.087Z,5.90
2024-03-16T05:58:42.021Z,6.70
2024-03-16T06:00:15.669Z,6.47
2024-03-16T06:01:47.904Z,6.90
2024-03-16T06:03:20.799Z,5.83
2024-03-16T06:04:53.911Z,7.40
2024-03-16T06:06:25.848Z,5.40
2024-03-16T06:07:58.718Z,6.70
2024-03-16T06:09:30.767Z,5.23
2024-03-16T06:11:03.728Z,5.10
2024-03-16T06:12:35.692Z,5.33
2024-03-16T06:14:10.477Z,6.07
2024-03-16T06:15:43.449Z,8.20
2024-03-16T06:17:15.440Z,5.10
2024-03-16T06:18:48.856Z,5.03
2024-03-16T06:20:25.026Z,6.57
2024-03-16T06:21:57.178Z,5.73
2024-03-16T06:23:30.585Z,6.30
2024-03-16T06:25:03.416Z,7.07
2024-03-16T06:26:37.741Z,5.27
2024-03-16T06:28:10.666Z,6.60
2024-03-16T06:29:48.847Z,4.13
2024-03-16T06:31:31.965Z,4.87
2024-03-16T06:33:10.416Z,5.23
2024-03-16T06:34:43.361Z,4.70
2024-03-16T06:36:16.724Z,4.40
2024-03-16T06:37:48.728Z,4.17
2024-03-16T06:39:22.627Z,3.97
2024-03-16T06:40:54.665Z,5.13
2024-03-16T06:42:29.293Z,4.17
2024-03-16T06:44:01.184Z,5.23
2024-03-16T06:45:34.114Z,4.67
2024-03-16T06:47:06.537Z,4.07
2024-03-16T06:48:39.459Z,6.03
2024-03-16T06:50:12.405Z,4.37
2024-03-16T06:51:45.351Z,4.00
2024-03-16T06:53:17.266Z,6.00
2024-03-16T06:54:50.171Z,4.07
2024-03-16T06:56:22.187Z,4.50
2024-03-16T06:57:55.166Z,4.30
2024-03-16T06:59:27.874Z,4.60
2024-03-16T07:01:00.850Z,4.93
2024-03-16T07:02:32.968Z,4.87
2024-03-16T07:04:06.171Z,4.10
2024-03-16T07:05:38.388Z,9.27
2024-03-16T07:07:11.363Z,4.33
2024-03-16T07:08:43.318Z,4.57
2024-03-16T07:10:17.201Z,6.50
2024-03-16T07:11:49.587Z,8.43
2024-03-16T07:13:22.694Z,6.47
2024-03-16T07:14:54.626Z,5.43
2024-03-16T07:16:27.551Z,5.37
2024-03-16T07:17:59.552Z,5.33
2024-03-16T07:19:32.509Z,5.07
2024-03-16T07:21:04.692Z,3.93
2024-03-16T07:22:37.573Z,4.83
2024-03-16T07:24:11.286Z,4.47
2024-03-16T07:25:43.367Z,4.00
2024-03-16T07:27:16.339Z,4.67
2024-03-16T07:28:48.286Z,4.43
2024-03-16T07:30:21.224Z,6.27
2024-03-16T07:31:53.150Z,5.00
2024-03-16T07:33:26.037Z,3.73
2024-03-16T07:34:57.997Z,4.10
2024-03-16T07:36:30.958Z,4.37
2024-03-16T07:38:03.147Z,3.57
2024-03-16T07:39:36.260Z,4.47
2024-03-16T07:41:09.858Z,4.70
2024-03-16T07:42:42.784Z,4.57
2024-03-16T07:44:15.718Z,5.37
2024-03-16T07:45:50.094Z,4.13
2024-03-16T07:47:23.066Z,3.47
2024-03-16T07:48:57.950Z,3.10
2024-03-16T07:50:31.728Z,2.23
2024-03-16T07:52:05.122Z,2.50
2024-03-16T07:53:38.801Z,3.70
2024-03-16T07:55:11.858Z,2.67
2024-03-16T07:56:43.821Z,1.83
2024-03-16T07:58:16.826Z,1.50
2024-03-16T07:59:48.824Z,2.70
2024-03-16T08:01:24.458Z,1.90
2024-03-16T08:02:56.542Z,2.13
2024-03-16T08:04:29.520Z,2.00
2024-03-16T08:06:05.344Z,2.40
2024-03-16T08:07:37.262Z,3.70
2024-03-16T08:09:12.822Z,1.70
2024-03-16T08:10:44.760Z,2.03
2024-03-16T08:12:17.644Z,2.37
2024-03-16T08:13:50.439Z,1.90
2024-03-16T08:15:23.924Z,2.10
2024-03-16T08:16:56.376Z,2.27
2024-03-16T08:18:30.251Z,2.27
2024-03-16T08:20:03.963Z,2.13
2024-03-16T08:21:37.325Z,1.27
2024-03-16T08:23:09.239Z,1.40
2024-03-16T08:24:42.868Z,1.80
2024-03-16T08:26:14.936Z,1.80
2024-03-16T08:27:47.856Z,2.03
2024-03-16T08:29:19.820Z,2.00
2024-03-16T08:30:52.744Z,1.37
2024-03-16T08:32:24.868Z,1.20
2024-03-16T08:33:57.783Z,1.73
2024-03-16T08:35:31.182Z,1.30
2024-03-16T08:37:04.879Z,1.20
2024-03-16T08:38:37.371Z,1.70
2024-03-16T08:40:13.176Z,0.77
2024-03-16T08:41:46.630Z,1.00
2024-03-16T08:43:18.683Z,1.53
2024-03-16T08:44:51.638Z,0.90
2024-03-16T08:46:26.389Z,2.23
2024-03-16T08:48:00.748Z,2.43
2024-03-16T08:49:32.792Z,0.73
2024-03-16T08:51:06.024Z,1.37
2024-03-16T08:52:38.972Z,0.60
2024-03-16T08:54:12.160Z,0.50
2024-03-16T08:55:44.128Z,0.70
2024-03-16T08:57:17.060Z,0.97
2024-03-16T08:58:50.498Z,0.90
2024-03-16T09:00:23.380Z,0.60
2024-03-16T09:01:55.407Z,1.00
2024-03-16T09:03:28.406Z,0.80
2024-03-16T09:05:00.954Z,0.90
2024-03-16T09:06:34.749Z,0.67
2024-03-16T09:08:06.741Z,0.93
2024-03-16T09:09:39.633Z,0.50
2024-03-16T09:11:12.475Z,0.57
2024-03-16T09:12:47.949Z,0.87
2024-03-16T09:14:20.845Z,1.00
2024-03-16T09:15:52.881Z,0.83
2024-03-16T09:17:25.910Z,1.50
2024-03-16T09:18:58.131Z,0.53
2024-03-16T09:20:31.071Z,2.10
2024-03-16T09:22:03.982Z,0.50
2024-03-16T09:23:36.344Z,1.23
2024-03-16T09:25:10.180Z,0.60
2024-03-16T09:26:42.366Z,0.93
2024-03-16T09:28:15.556Z,0.40
2024-03-16T09:29:48.566Z,0.50
2024-03-16T09:31:20.932Z,1.10
2024-03-16T09:32:53.865Z,0.97
2024-03-16T09:34:25.821Z,1.13
2024-03-16T09:35:58.731Z,0.60
2024-03-16T09:37:30.752Z,0.47
2024-03-16T09:39:08.230Z,1.30
2024-03-16T09:40:41.050Z,0.63
2024-03-16T09:42:14.087Z,0.50
